sensor_id;sensor_type;location;lat;lon;timestamp;P1;durP1;ratioP1;P2;durP2;ratioP2
79130;SDS011;70394;45.194;9.142;2023-06-19T00:01:26;7.70;;;6.03;;
79130;SDS011;70394;45.194;9.142;2023-06-19T00:03:51;7.95;;;6.05;;
79130;SDS011;70394;45.194;9.142;2023-06-19T00:06:16;8.73;;;6.13;;
79130;SDS011;70394;45.194;9.142;2023-06-19T00:08:42;7.57;;;6.10;;
79130;SDS011;70394;45.194;9.142;2023-06-19T00:11:07;9.30;;;6.63;;
79130;SDS011;70394;45.194;9.142;2023-06-19T00:13:33;8.65;;;6.40;;
79130;SDS011;70394;45.194;9.142;2023-06-19T00:15:59;7.07;;;6.03;;
79130;SDS011;70394;45.194;9.142;2023-06-19T00:18:25;10.02;;;6.13;;
79130;SDS011;70394;45.194;9.142;2023-06-19T00:20:51;6.57;;;5.75;;
79130;SDS011;70394;45.194;9.142;2023-06-19T00:23:19;8.40;;;6.00;;
79130;SDS011;70394;45.194;9.142;2023-06-19T00:25:44;7.20;;;6.03;;
79130;SDS011;70394;45.194;9.142;2023-06-19T00:28:10;8.43;;;6.50;;
79130;SDS011;70394;45.194;9.142;2023-06-19T00:30:38;7.18;;;5.57;;
79130;SDS011;70394;45.194;9.142;2023-06-19T00:33:04;7.75;;;6.32;;
79130;SDS011;70394;45.194;9.142;2023-06-19T00:35:30;7.68;;;6.00;;
79130;SDS011;70394;45.194;9.142;2023-06-19T00:37:55;8.90;;;6.28;;
79130;SDS011;70394;45.194;9.142;2023-06-19T00:40:24;7.80;;;6.10;;
79130;SDS011;70394;45.194;9.142;2023-06-19T00:42:52;8.13;;;6.50;;
79130;SDS011;70394;45.194;9.142;2023-06-19T00:45:18;8.00;;;6.30;;
79130;SDS011;70394;45.194;9.142;2023-06-19T00:47:43;9.05;;;6.60;;
79130;SDS011;70394;45.194;9.142;2023-06-19T00:50:08;9.45;;;6.65;;
79130;SDS011;70394;45.194;9.142;2023-06-19T00:52:34;7.45;;;6.10;;
79130;SDS011;70394;45.194;9.142;2023-06-19T00:55:00;7.75;;;6.75;;
79130;SDS011;70394;45.194;9.142;2023-06-19T00:57:25;7.75;;;6.10;;
79130;SDS011;70394;45.194;9.142;2023-06-19T00:59:51;7.15;;;6.40;;
79130;SDS011;70394;45.194;9.142;2023-06-19T01:02:18;7.88;;;6.20;;
79130;SDS011;70394;45.194;9.142;2023-06-19T01:07:13;9.63;;;6.07;;
79130;SDS011;70394;45.194;9.142;2023-06-19T01:09:48;9.77;;;6.32;;
79130;SDS011;70394;45.194;9.142;2023-06-19T01:12:19;7.65;;;6.00;;
79130;SDS011;70394;45.194;9.142;2023-06-19T01:17:25;8.00;;;6.10;;
79130;SDS011;70394;45.194;9.142;2023-06-19T01:19:52;7.95;;;6.43;;
79130;SDS011;70394;45.194;9.142;2023-06-19T01:22:23;6.53;;;5.55;;
79130;SDS011;70394;45.194;9.142;2023-06-19T01:24:50;8.25;;;5.93;;
79130;SDS011;70394;45.194;9.142;2023-06-19T01:27:15;6.90;;;5.88;;
79130;SDS011;70394;45.194;9.142;2023-06-19T01:29:41;7.30;;;6.03;;
79130;SDS011;70394;45.194;9.142;2023-06-19T01:32:08;6.97;;;5.70;;
79130;SDS011;70394;45.194;9.142;2023-06-19T01:34:38;7.70;;;6.38;;
79130;SDS011;70394;45.194;9.142;2023-06-19T01:37:03;8.02;;;5.68;;
79130;SDS011;70394;45.194;9.142;2023-06-19T01:39:31;8.20;;;6.03;;
79130;SDS011;70394;45.194;9.142;2023-06-19T01:41:58;7.40;;;5.85;;
79130;SDS011;70394;45.194;9.142;2023-06-19T01:44:24;7.20;;;5.65;;
79130;SDS011;70394;45.194;9.142;2023-06-19T01:46:50;7.20;;;6.10;;
79130;SDS011;70394;45.194;9.142;2023-06-19T01:49:16;7.25;;;5.80;;
79130;SDS011;70394;45.194;9.142;2023-06-19T01:51:42;7.03;;;5.80;;
79130;SDS011;70394;45.194;9.142;2023-06-19T01:54:07;6.90;;;5.70;;
79130;SDS011;70394;45.194;9.142;2023-06-19T01:56:32;8.35;;;5.82;;
79130;SDS011;70394;45.194;9.142;2023-06-19T01:58:58;7.75;;;5.43;;
79130;SDS011;70394;45.194;9.142;2023-06-19T02:01:23;6.72;;;5.35;;
79130;SDS011;70394;45.194;9.142;2023-06-19T02:03:49;6.65;;;5.47;;
79130;SDS011;70394;45.194;9.142;2023-06-19T02:06:14;9.05;;;6.07;;
79130;SDS011;70394;45.194;9.142;2023-06-19T02:08:39;7.50;;;5.72;;
79130;SDS011;70394;45.194;9.142;2023-06-19T02:11:05;6.95;;;5.68;;
79130;SDS011;70394;45.194;9.142;2023-06-19T02:13:30;9.27;;;5.80;;
79130;SDS011;70394;45.194;9.142;2023-06-19T02:15:55;7.43;;;5.50;;
79130;SDS011;70394;45.194;9.142;2023-06-19T02:18:21;7.97;;;5.47;;
79130;SDS011;70394;45.194;9.142;2023-06-19T02:20:46;6.68;;;5.18;;
79130;SDS011;70394;45.194;9.142;2023-06-19T02:23:12;8.57;;;6.10;;
79130;SDS011;70394;45.194;9.142;2023-06-19T02:25:37;8.27;;;6.00;;
79130;SDS011;70394;45.194;9.142;2023-06-19T02:28:03;7.65;;;5.68;;
79130;SDS011;70394;45.194;9.142;2023-06-19T02:30:28;7.60;;;5.45;;
79130;SDS011;70394;45.194;9.142;2023-06-19T02:32:54;7.00;;;5.38;;
79130;SDS011;70394;45.194;9.142;2023-06-19T02:35:19;7.28;;;5.10;;
79130;SDS011;70394;45.194;9.142;2023-06-19T02:37:45;8.25;;;5.10;;
79130;SDS011;70394;45.194;9.142;2023-06-19T02:40:12;7.55;;;5.18;;
79130;SDS011;70394;45.194;9.142;2023-06-19T02:42:38;6.32;;;4.88;;
79130;SDS011;70394;45.194;9.142;2023-06-19T02:45:03;6.90;;;5.75;;
79130;SDS011;70394;45.194;9.142;2023-06-19T02:47:33;7.32;;;5.55;;
79130;SDS011;70394;45.194;9.142;2023-06-19T02:49:58;7.43;;;5.35;;
79130;SDS011;70394;45.194;9.142;2023-06-19T02:52:25;8.70;;;5.70;;
79130;SDS011;70394;45.194;9.142;2023-06-19T02:54:50;7.45;;;5.55;;
79130;SDS011;70394;45.194;9.142;2023-06-19T02:57:16;7.50;;;5.63;;
79130;SDS011;70394;45.194;9.142;2023-06-19T02:59:41;7.00;;;5.35;;
79130;SDS011;70394;45.194;9.142;2023-06-19T03:02:06;8.18;;;5.88;;
79130;SDS011;70394;45.194;9.142;2023-06-19T03:04:32;7.60;;;5.90;;
79130;SDS011;70394;45.194;9.142;2023-06-19T03:06:57;7.80;;;5.68;;
79130;SDS011;70394;45.194;9.142;2023-06-19T03:09:23;7.10;;;5.35;;
79130;SDS011;70394;45.194;9.142;2023-06-19T03:11:48;6.47;;;5.28;;
79130;SDS011;70394;45.194;9.142;2023-06-19T03:14:13;6.65;;;5.38;;
79130;SDS011;70394;45.194;9.142;2023-06-19T03:16:39;6.35;;;5.18;;
79130;SDS011;70394;45.194;9.142;2023-06-19T03:19:04;5.95;;;5.18;;
79130;SDS011;70394;45.194;9.142;2023-06-19T03:21:29;6.55;;;5.20;;
79130;SDS011;70394;45.194;9.142;2023-06-19T03:23:55;6.35;;;4.95;;
79130;SDS011;70394;45.194;9.142;2023-06-19T03:26:20;7.38;;;5.13;;
79130;SDS011;70394;45.194;9.142;2023-06-19T03:28:46;6.45;;;4.80;;
79130;SDS011;70394;45.194;9.142;2023-06-19T03:31:14;6.47;;;4.78;;
79130;SDS011;70394;45.194;9.142;2023-06-19T03:33:40;7.30;;;5.20;;
79130;SDS011;70394;45.194;9.142;2023-06-19T03:36:05;7.72;;;5.45;;
79130;SDS011;70394;45.194;9.142;2023-06-19T03:38:31;7.93;;;5.30;;
79130;SDS011;70394;45.194;9.142;2023-06-19T03:40:56;7.82;;;5.38;;
79130;SDS011;70394;45.194;9.142;2023-06-19T03:43:21;7.22;;;5.00;;
79130;SDS011;70394;45.194;9.142;2023-06-19T03:45:47;6.10;;;5.10;;
79130;SDS011;70394;45.194;9.142;2023-06-19T03:48:12;7.68;;;5.63;;
79130;SDS011;70394;45.194;9.142;2023-06-19T03:50:38;6.65;;;4.85;;
79130;SDS011;70394;45.194;9.142;2023-06-19T03:53:03;8.23;;;5.15;;
79130;SDS011;70394;45.194;9.142;2023-06-19T03:55:29;6.38;;;5.15;;
79130;SDS011;70394;45.194;9.142;2023-06-19T03:57:55;6.03;;;5.05;;
79130;SDS011;70394;45.194;9.142;2023-06-19T04:00:20;6.63;;;5.30;;
79130;SDS011;70394;45.194;9.142;2023-06-19T04:02:45;7.05;;;5.43;;
79130;SDS011;70394;45.194;9.142;2023-06-19T04:05:14;6.30;;;5.05;;
79130;SDS011;70394;45.194;9.142;2023-06-19T04:07:43;5.85;;;4.95;;
79130;SDS011;70394;45.194;9.142;2023-06-19T04:10:08;7.63;;;5.07;;
79130;SDS011;70394;45.194;9.142;2023-06-19T04:12:34;9.48;;;5.50;;
79130;SDS011;70394;45.194;9.142;2023-06-19T04:14:59;6.93;;;5.70;;
79130;SDS011;70394;45.194;9.142;2023-06-19T04:17:25;8.40;;;5.43;;
79130;SDS011;70394;45.194;9.142;2023-06-19T04:19:50;7.55;;;4.90;;
79130;SDS011;70394;45.194;9.142;2023-06-19T04:22:15;6.80;;;5.38;;
79130;SDS011;70394;45.194;9.142;2023-06-19T04:24:41;7.35;;;5.38;;
79130;SDS011;70394;45.194;9.142;2023-06-19T04:27:06;6.40;;;5.22;;
79130;SDS011;70394;45.194;9.142;2023-06-19T04:29:33;6.68;;;5.13;;
79130;SDS011;70394;45.194;9.142;2023-06-19T04:31:59;6.00;;;4.72;;
79130;SDS011;70394;45.194;9.142;2023-06-19T04:34:24;6.90;;;5.38;;
79130;SDS011;70394;45.194;9.142;2023-06-19T04:36:50;6.53;;;4.90;;
79130;SDS011;70394;45.194;9.142;2023-06-19T04:39:15;6.57;;;5.10;;
79130;SDS011;70394;45.194;9.142;2023-06-19T04:41:44;7.28;;;5.70;;
79130;SDS011;70394;45.194;9.142;2023-06-19T04:44:09;6.97;;;5.00;;
79130;SDS011;70394;45.194;9.142;2023-06-19T04:46:37;6.75;;;5.45;;
79130;SDS011;70394;45.194;9.142;2023-06-19T04:49:02;7.43;;;5.10;;
79130;SDS011;70394;45.194;9.142;2023-06-19T04:51:29;7.40;;;5.30;;
79130;SDS011;70394;45.194;9.142;2023-06-19T04:53:55;6.65;;;5.22;;
79130;SDS011;70394;45.194;9.142;2023-06-19T04:56:21;7.28;;;5.40;;
79130;SDS011;70394;45.194;9.142;2023-06-19T04:58:46;6.30;;;4.93;;
79130;SDS011;70394;45.194;9.142;2023-06-19T05:01:15;7.18;;;5.63;;
79130;SDS011;70394;45.194;9.142;2023-06-19T05:03:42;6.47;;;5.00;;
79130;SDS011;70394;45.194;9.142;2023-06-19T05:06:11;7.15;;;5.40;;
79130;SDS011;70394;45.194;9.142;2023-06-19T05:08:36;6.35;;;4.80;;
79130;SDS011;70394;45.194;9.142;2023-06-19T05:11:01;5.88;;;5.03;;
79130;SDS011;70394;45.194;9.142;2023-06-19T05:13:27;6.65;;;5.40;;
79130;SDS011;70394;45.194;9.142;2023-06-19T05:15:52;7.80;;;5.15;;
79130;SDS011;70394;45.194;9.142;2023-06-19T05:18:18;6.20;;;4.80;;
79130;SDS011;70394;45.194;9.142;2023-06-19T05:20:44;6.38;;;4.82;;
79130;SDS011;70394;45.194;9.142;2023-06-19T05:23:09;6.70;;;5.03;;
79130;SDS011;70394;45.194;9.142;2023-06-19T05:25:35;6.63;;;4.60;;
79130;SDS011;70394;45.194;9.142;2023-06-19T05:28:00;8.23;;;4.88;;
79130;SDS011;70394;45.194;9.142;2023-06-19T05:30:26;5.97;;;5.00;;
79130;SDS011;70394;45.194;9.142;2023-06-19T05:32:51;5.95;;;5.30;;
79130;SDS011;70394;45.194;9.142;2023-06-19T05:35:16;6.07;;;5.00;;
79130;SDS011;70394;45.194;9.142;2023-06-19T05:37:42;6.15;;;4.80;;
79130;SDS011;70394;45.194;9.142;2023-06-19T05:40:09;7.43;;;4.85;;
79130;SDS011;70394;45.194;9.142;2023-06-19T05:42:35;6.32;;;4.82;;
79130;SDS011;70394;45.194;9.142;2023-06-19T05:45:01;5.70;;;4.65;;
79130;SDS011;70394;45.194;9.142;2023-06-19T05:47:27;5.95;;;4.93;;
79130;SDS011;70394;45.194;9.142;2023-06-19T05:49:54;6.20;;;5.00;;
79130;SDS011;70394;45.194;9.142;2023-06-19T05:52:19;7.03;;;4.93;;
79130;SDS011;70394;45.194;9.142;2023-06-19T05:54:46;7.63;;;5.05;;
79130;SDS011;70394;45.194;9.142;2023-06-19T05:57:11;7.03;;;3.95;;
79130;SDS011;70394;45.194;9.142;2023-06-19T05:59:36;5.65;;;4.32;;
79130;SDS011;70394;45.194;9.142;2023-06-19T06:02:02;10.15;;;4.80;;
79130;SDS011;70394;45.194;9.142;2023-06-19T06:04:28;6.72;;;4.57;;
79130;SDS011;70394;45.194;9.142;2023-06-19T06:06:55;6.47;;;4.68;;
79130;SDS011;70394;45.194;9.142;2023-06-19T06:09:21;7.32;;;4.93;;
79130;SDS011;70394;45.194;9.142;2023-06-19T06:11:47;5.40;;;4.40;;
79130;SDS011;70394;45.194;9.142;2023-06-19T06:14:12;6.00;;;4.47;;
79130;SDS011;70394;45.194;9.142;2023-06-19T06:16:38;5.95;;;4.85;;
79130;SDS011;70394;45.194;9.142;2023-06-19T06:19:03;5.78;;;4.30;;
79130;SDS011;70394;45.194;9.142;2023-06-19T06:21:29;6.05;;;4.60;;
79130;SDS011;70394;45.194;9.142;2023-06-19T06:23:54;6.38;;;4.90;;
79130;SDS011;70394;45.194;9.142;2023-06-19T06:26:20;7.50;;;4.93;;
79130;SDS011;70394;45.194;9.142;2023-06-19T06:28:46;5.80;;;5.07;;
79130;SDS011;70394;45.194;9.142;2023-06-19T06:31:12;8.50;;;5.05;;
79130;SDS011;70394;45.194;9.142;2023-06-19T06:33:37;8.68;;;6.05;;
79130;SDS011;70394;45.194;9.142;2023-06-19T06:36:02;8.18;;;5.28;;
79130;SDS011;70394;45.194;9.142;2023-06-19T06:38:28;9.30;;;5.82;;
79130;SDS011;70394;45.194;9.142;2023-06-19T06:40:53;11.43;;;5.82;;
79130;SDS011;70394;45.194;9.142;2023-06-19T06:43:18;10.18;;;5.70;;
79130;SDS011;70394;45.194;9.142;2023-06-19T06:45:44;7.93;;;5.88;;
79130;SDS011;70394;45.194;9.142;2023-06-19T06:48:09;9.57;;;6.03;;
79130;SDS011;70394;45.194;9.142;2023-06-19T06:50:34;9.50;;;5.95;;
79130;SDS011;70394;45.194;9.142;2023-06-19T06:53:00;7.85;;;5.95;;
79130;SDS011;70394;45.194;9.142;2023-06-19T06:55:25;9.45;;;6.25;;
79130;SDS011;70394;45.194;9.142;2023-06-19T06:57:51;9.05;;;6.10;;
79130;SDS011;70394;45.194;9.142;2023-06-19T07:00:16;8.57;;;6.40;;
79130;SDS011;70394;45.194;9.142;2023-06-19T07:02:43;8.40;;;6.05;;
79130;SDS011;70394;45.194;9.142;2023-06-19T07:05:09;6.32;;;5.35;;
79130;SDS011;70394;45.194;9.142;2023-06-19T07:07:35;8.75;;;5.82;;
79130;SDS011;70394;45.194;9.142;2023-06-19T07:10:01;7.88;;;6.10;;
79130;SDS011;70394;45.194;9.142;2023-06-19T07:12:27;8.70;;;6.20;;
79130;SDS011;70394;45.194;9.142;2023-06-19T07:14:55;8.32;;;6.53;;
79130;SDS011;70394;45.194;9.142;2023-06-19T07:17:21;8.80;;;6.53;;
79130;SDS011;70394;45.194;9.142;2023-06-19T07:19:47;9.50;;;5.97;;
79130;SDS011;70394;45.194;9.142;2023-06-19T07:22:13;6.85;;;5.60;;
79130;SDS011;70394;45.194;9.142;2023-06-19T07:24:40;8.60;;;6.15;;
79130;SDS011;70394;45.194;9.142;2023-06-19T07:27:05;10.55;;;6.60;;
79130;SDS011;70394;45.194;9.142;2023-06-19T07:29:31;8.57;;;6.05;;
79130;SDS011;70394;45.194;9.142;2023-06-19T07:31:57;8.63;;;5.85;;
79130;SDS011;70394;45.194;9.142;2023-06-19T07:36:50;6.80;;;5.35;;
79130;SDS011;70394;45.194;9.142;2023-06-19T07:39:15;7.00;;;6.18;;
79130;SDS011;70394;45.194;9.142;2023-06-19T07:41:41;7.38;;;5.97;;
79130;SDS011;70394;45.194;9.142;2023-06-19T07:44:06;7.85;;;6.38;;
79130;SDS011;70394;45.194;9.142;2023-06-19T07:46:32;7.00;;;5.82;;
79130;SDS011;70394;45.194;9.142;2023-06-19T07:48:57;7.60;;;5.85;;
79130;SDS011;70394;45.194;9.142;2023-06-19T07:51:23;8.52;;;5.93;;
79130;SDS011;70394;45.194;9.142;2023-06-19T07:53:48;8.45;;;5.78;;
79130;SDS011;70394;45.194;9.142;2023-06-19T07:56:13;8.23;;;6.55;;
79130;SDS011;70394;45.194;9.142;2023-06-19T07:58:39;7.75;;;6.50;;
79130;SDS011;70394;45.194;9.142;2023-06-19T08:01:04;6.60;;;5.82;;
79130;SDS011;70394;45.194;9.142;2023-06-19T08:03:30;7.22;;;6.30;;
79130;SDS011;70394;45.194;9.142;2023-06-19T08:05:55;7.07;;;5.97;;
79130;SDS011;70394;45.194;9.142;2023-06-19T08:08:21;9.10;;;6.35;;
79130;SDS011;70394;45.194;9.142;2023-06-19T08:10:46;8.20;;;6.63;;
79130;SDS011;70394;45.194;9.142;2023-06-19T08:13:12;8.45;;;6.82;;
79130;SDS011;70394;45.194;9.142;2023-06-19T08:15:37;8.63;;;6.50;;
79130;SDS011;70394;45.194;9.142;2023-06-19T08:18:03;8.18;;;7.30;;
79130;SDS011;70394;45.194;9.142;2023-06-19T08:20:29;8.45;;;6.43;;
79130;SDS011;70394;45.194;9.142;2023-06-19T08:22:54;7.90;;;6.60;;
79130;SDS011;70394;45.194;9.142;2023-06-19T08:25:21;9.40;;;6.20;;
79130;SDS011;70394;45.194;9.142;2023-06-19T08:27:46;8.48;;;7.03;;
79130;SDS011;70394;45.194;9.142;2023-06-19T08:30:12;7.85;;;6.70;;
79130;SDS011;70394;45.194;9.142;2023-06-19T08:32:37;7.45;;;6.65;;
79130;SDS011;70394;45.194;9.142;2023-06-19T08:35:02;9.98;;;6.78;;
79130;SDS011;70394;45.194;9.142;2023-06-19T08:37:28;8.95;;;6.97;;
79130;SDS011;70394;45.194;9.142;2023-06-19T08:39:54;7.72;;;6.68;;
79130;SDS011;70394;45.194;9.142;2023-06-19T08:42:21;8.13;;;7.22;;
79130;SDS011;70394;45.194;9.142;2023-06-19T08:44:47;7.88;;;7.07;;
79130;SDS011;70394;45.194;9.142;2023-06-19T08:47:13;8.45;;;7.57;;
79130;SDS011;70394;45.194;9.142;2023-06-19T08:49:39;7.72;;;6.93;;
79130;SDS011;70394;45.194;9.142;2023-06-19T08:52:04;8.75;;;7.20;;
79130;SDS011;70394;45.194;9.142;2023-06-19T08:54:30;8.25;;;7.40;;
79130;SDS011;70394;45.194;9.142;2023-06-19T08:56:59;8.07;;;6.82;;
79130;SDS011;70394;45.194;9.142;2023-06-19T08:59:25;9.50;;;7.43;;
79130;SDS011;70394;45.194;9.142;2023-06-19T09:01:52;8.65;;;6.90;;
79130;SDS011;70394;45.194;9.142;2023-06-19T09:04:22;9.15;;;7.25;;
79130;SDS011;70394;45.194;9.142;2023-06-19T09:09:17;11.57;;;8.30;;
79130;SDS011;70394;45.194;9.142;2023-06-19T09:11:56;15.93;;;8.60;;
79130;SDS011;70394;45.194;9.142;2023-06-19T09:14:31;12.70;;;7.43;;
79130;SDS011;70394;45.194;9.142;2023-06-19T09:16:57;8.32;;;7.28;;
79130;SDS011;70394;45.194;9.142;2023-06-19T09:19:23;10.95;;;8.45;;
79130;SDS011;70394;45.194;9.142;2023-06-19T09:21:48;9.02;;;7.13;;
79130;SDS011;70394;45.194;9.142;2023-06-19T09:24:13;9.40;;;7.68;;
79130;SDS011;70394;45.194;9.142;2023-06-19T09:26:39;11.48;;;7.88;;
79130;SDS011;70394;45.194;9.142;2023-06-19T09:29:13;7.95;;;7.15;;
79130;SDS011;70394;45.194;9.142;2023-06-19T09:31:44;9.80;;;8.45;;
79130;SDS011;70394;45.194;9.142;2023-06-19T09:34:09;11.88;;;8.10;;
79130;SDS011;70394;45.194;9.142;2023-06-19T09:36:35;13.73;;;9.18;;
79130;SDS011;70394;45.194;9.142;2023-06-19T09:39:04;11.73;;;8.70;;
79130;SDS011;70394;45.194;9.142;2023-06-19T09:41:30;9.20;;;8.23;;
79130;SDS011;70394;45.194;9.142;2023-06-19T09:43:55;10.23;;;7.75;;
79130;SDS011;70394;45.194;9.142;2023-06-19T09:46:23;9.27;;;8.05;;
79130;SDS011;70394;45.194;9.142;2023-06-19T09:48:55;9.68;;;8.13;;
79130;SDS011;70394;45.194;9.142;2023-06-19T09:51:30;13.85;;;9.35;;
79130;SDS011;70394;45.194;9.142;2023-06-19T09:53:57;16.08;;;9.30;;
79130;SDS011;70394;45.194;9.142;2023-06-19T09:56:25;12.40;;;9.45;;
79130;SDS011;70394;45.194;9.142;2023-06-19T09:58:53;18.02;;;10.48;;
79130;SDS011;70394;45.194;9.142;2023-06-19T10:01:23;18.52;;;10.77;;
79130;SDS011;70394;45.194;9.142;2023-06-19T10:03:49;17.92;;;11.00;;
79130;SDS011;70394;45.194;9.142;2023-06-19T10:06:15;15.13;;;10.45;;
79130;SDS011;70394;45.194;9.142;2023-06-19T10:08:42;14.32;;;10.13;;
79130;SDS011;70394;45.194;9.142;2023-06-19T10:11:09;16.10;;;10.25;;
79130;SDS011;70394;45.194;9.142;2023-06-19T10:13:40;12.70;;;10.50;;
79130;SDS011;70394;45.194;9.142;2023-06-19T10:16:06;14.50;;;10.32;;
79130;SDS011;70394;45.194;9.142;2023-06-19T10:18:32;11.70;;;9.20;;
79130;SDS011;70394;45.194;9.142;2023-06-19T10:21:20;12.10;;;9.30;;
79130;SDS011;70394;45.194;9.142;2023-06-19T10:23:57;10.93;;;8.88;;
79130;SDS011;70394;45.194;9.142;2023-06-19T10:26:31;11.95;;;9.82;;
79130;SDS011;70394;45.194;9.142;2023-06-19T10:29:00;11.25;;;8.88;;
79130;SDS011;70394;45.194;9.142;2023-06-19T10:31:26;10.55;;;8.80;;
79130;SDS011;70394;45.194;9.142;2023-06-19T10:33:53;10.90;;;8.90;;
79130;SDS011;70394;45.194;9.142;2023-06-19T10:36:20;9.95;;;8.80;;
79130;SDS011;70394;45.194;9.142;2023-06-19T10:38:51;10.77;;;9.40;;
79130;SDS011;70394;45.194;9.142;2023-06-19T10:41:17;11.23;;;8.55;;
79130;SDS011;70394;45.194;9.142;2023-06-19T10:43:52;10.00;;;9.00;;
79130;SDS011;70394;45.194;9.142;2023-06-19T10:46:22;10.13;;;9.13;;
79130;SDS011;70394;45.194;9.142;2023-06-19T10:48:49;9.85;;;8.85;;
79130;SDS011;70394;45.194;9.142;2023-06-19T10:51:18;10.13;;;9.07;;
79130;SDS011;70394;45.194;9.142;2023-06-19T10:53:44;11.60;;;9.63;;
79130;SDS011;70394;45.194;9.142;2023-06-19T10:56:10;11.90;;;9.50;;
79130;SDS011;70394;45.194;9.142;2023-06-19T10:58:35;14.50;;;9.10;;
79130;SDS011;70394;45.194;9.142;2023-06-19T11:01:00;10.43;;;9.32;;
79130;SDS011;70394;45.194;9.142;2023-06-19T11:03:26;10.82;;;9.07;;
79130;SDS011;70394;45.194;9.142;2023-06-19T11:05:51;10.90;;;9.73;;
79130;SDS011;70394;45.194;9.142;2023-06-19T11:08:17;10.55;;;9.25;;
79130;SDS011;70394;45.194;9.142;2023-06-19T11:10:44;10.40;;;9.30;;
79130;SDS011;70394;45.194;9.142;2023-06-19T11:13:13;10.07;;;8.57;;
79130;SDS011;70394;45.194;9.142;2023-06-19T11:15:45;10.20;;;9.18;;
79130;SDS011;70394;45.194;9.142;2023-06-19T11:18:14;10.63;;;9.15;;
79130;SDS011;70394;45.194;9.142;2023-06-19T11:23:29;10.57;;;8.68;;
79130;SDS011;70394;45.194;9.142;2023-06-19T11:26:02;10.00;;;9.00;;
79130;SDS011;70394;45.194;9.142;2023-06-19T11:28:29;10.82;;;9.57;;
79130;SDS011;70394;45.194;9.142;2023-06-19T11:31:01;10.45;;;9.23;;
79130;SDS011;70394;45.194;9.142;2023-06-19T11:33:30;10.15;;;9.05;;
79130;SDS011;70394;45.194;9.142;2023-06-19T11:36:01;9.73;;;8.73;;
79130;SDS011;70394;45.194;9.142;2023-06-19T11:38:28;10.25;;;9.25;;
79130;SDS011;70394;45.194;9.142;2023-06-19T11:40:54;10.75;;;9.13;;
79130;SDS011;70394;45.194;9.142;2023-06-19T11:43:27;9.60;;;8.02;;
79130;SDS011;70394;45.194;9.142;2023-06-19T11:46:04;10.10;;;8.80;;
79130;SDS011;70394;45.194;9.142;2023-06-19T11:48:31;10.05;;;8.98;;
79130;SDS011;70394;45.194;9.142;2023-06-19T11:50:57;9.70;;;8.70;;
79130;SDS011;70394;45.194;9.142;2023-06-19T11:53:23;10.45;;;8.77;;
79130;SDS011;70394;45.194;9.142;2023-06-19T11:55:49;9.75;;;8.70;;
79130;SDS011;70394;45.194;9.142;2023-06-19T11:58:18;10.15;;;9.13;;
79130;SDS011;70394;45.194;9.142;2023-06-19T12:00:47;10.48;;;8.60;;
79130;SDS011;70394;45.194;9.142;2023-06-19T12:03:12;9.18;;;8.27;;
79130;SDS011;70394;45.194;9.142;2023-06-19T12:05:38;9.70;;;8.15;;
79130;SDS011;70394;45.194;9.142;2023-06-19T12:08:04;9.80;;;8.80;;
79130;SDS011;70394;45.194;9.142;2023-06-19T12:10:31;10.57;;;8.75;;
79130;SDS011;70394;45.194;9.142;2023-06-19T12:12:57;10.60;;;8.60;;
79130;SDS011;70394;45.194;9.142;2023-06-19T12:15:22;9.38;;;8.30;;
79130;SDS011;70394;45.194;9.142;2023-06-19T12:17:49;9.93;;;8.43;;
79130;SDS011;70394;45.194;9.142;2023-06-19T12:20:17;10.23;;;7.93;;
79130;SDS011;70394;45.194;9.142;2023-06-19T12:22:43;11.70;;;8.25;;
79130;SDS011;70394;45.194;9.142;2023-06-19T12:25:09;9.70;;;8.57;;
79130;SDS011;70394;45.194;9.142;2023-06-19T12:27:35;9.10;;;8.13;;
79130;SDS011;70394;45.194;9.142;2023-06-19T12:30:00;10.43;;;8.45;;
79130;SDS011;70394;45.194;9.142;2023-06-19T12:32:25;9.60;;;7.82;;
79130;SDS011;70394;45.194;9.142;2023-06-19T12:34:51;10.25;;;8.48;;
79130;SDS011;70394;45.194;9.142;2023-06-19T12:37:19;9.82;;;8.82;;
79130;SDS011;70394;45.194;9.142;2023-06-19T12:39:45;10.85;;;8.00;;
79130;SDS011;70394;45.194;9.142;2023-06-19T12:42:11;8.75;;;7.85;;
79130;SDS011;70394;45.194;9.142;2023-06-19T12:44:40;8.90;;;8.00;;
79130;SDS011;70394;45.194;9.142;2023-06-19T12:47:06;8.57;;;7.68;;
79130;SDS011;70394;45.194;9.142;2023-06-19T12:49:32;9.48;;;8.02;;
79130;SDS011;70394;45.194;9.142;2023-06-19T12:51:58;8.73;;;7.85;;
79130;SDS011;70394;45.194;9.142;2023-06-19T12:54:24;10.52;;;8.88;;
79130;SDS011;70394;45.194;9.142;2023-06-19T12:56:49;8.45;;;7.55;;
79130;SDS011;70394;45.194;9.142;2023-06-19T12:59:15;9.40;;;7.88;;
79130;SDS011;70394;45.194;9.142;2023-06-19T13:01:41;8.68;;;7.72;;
79130;SDS011;70394;45.194;9.142;2023-06-19T13:04:07;10.10;;;7.47;;
79130;SDS011;70394;45.194;9.142;2023-06-19T13:06:33;9.48;;;7.40;;
79130;SDS011;70394;45.194;9.142;2023-06-19T13:08:59;8.52;;;7.63;;
79130;SDS011;70394;45.194;9.142;2023-06-19T13:11:24;8.10;;;7.25;;
79130;SDS011;70394;45.194;9.142;2023-06-19T13:13:50;8.23;;;7.40;;
79130;SDS011;70394;45.194;9.142;2023-06-19T13:16:15;9.32;;;7.30;;
79130;SDS011;70394;45.194;9.142;2023-06-19T13:18:44;9.30;;;7.18;;
79130;SDS011;70394;45.194;9.142;2023-06-19T13:21:10;9.27;;;7.95;;
79130;SDS011;70394;45.194;9.142;2023-06-19T13:23:36;7.78;;;6.97;;
79130;SDS011;70394;45.194;9.142;2023-06-19T13:26:02;9.00;;;7.20;;
79130;SDS011;70394;45.194;9.142;2023-06-19T13:28:27;8.63;;;7.18;;
79130;SDS011;70394;45.194;9.142;2023-06-19T13:30:53;8.73;;;7.68;;
79130;SDS011;70394;45.194;9.142;2023-06-19T13:33:18;8.18;;;7.35;;
79130;SDS011;70394;45.194;9.142;2023-06-19T13:35:43;8.18;;;7.38;;
79130;SDS011;70394;45.194;9.142;2023-06-19T13:38:09;8.27;;;7.18;;
79130;SDS011;70394;45.194;9.142;2023-06-19T13:40:35;7.72;;;6.93;;
79130;SDS011;70394;45.194;9.142;2023-06-19T13:43:01;8.07;;;7.28;;
79130;SDS011;70394;45.194;9.142;2023-06-19T13:45:28;7.47;;;6.70;;
79130;SDS011;70394;45.194;9.142;2023-06-19T13:47:54;9.07;;;6.63;;
79130;SDS011;70394;45.194;9.142;2023-06-19T13:50:19;8.60;;;7.10;;
79130;SDS011;70394;45.194;9.142;2023-06-19T13:52:48;9.20;;;7.22;;
79130;SDS011;70394;45.194;9.142;2023-06-19T13:55:13;9.55;;;7.13;;
79130;SDS011;70394;45.194;9.142;2023-06-19T13:57:42;9.63;;;7.82;;
79130;SDS011;70394;45.194;9.142;2023-06-19T14:00:08;8.15;;;6.88;;
79130;SDS011;70394;45.194;9.142;2023-06-19T14:02:35;9.10;;;6.95;;
79130;SDS011;70394;45.194;9.142;2023-06-19T14:05:02;8.93;;;7.15;;
79130;SDS011;70394;45.194;9.142;2023-06-19T14:07:29;7.93;;;6.97;;
79130;SDS011;70394;45.194;9.142;2023-06-19T14:09:54;8.00;;;7.20;;
79130;SDS011;70394;45.194;9.142;2023-06-19T14:12:20;9.60;;;6.90;;
79130;SDS011;70394;45.194;9.142;2023-06-19T14:14:46;7.03;;;6.30;;
79130;SDS011;70394;45.194;9.142;2023-06-19T14:17:13;8.98;;;7.32;;
79130;SDS011;70394;45.194;9.142;2023-06-19T14:19:39;7.40;;;6.20;;
79130;SDS011;70394;45.194;9.142;2023-06-19T14:22:04;8.98;;;7.28;;
79130;SDS011;70394;45.194;9.142;2023-06-19T14:24:29;7.65;;;6.43;;
79130;SDS011;70394;45.194;9.142;2023-06-19T14:26:55;8.20;;;6.95;;
79130;SDS011;70394;45.194;9.142;2023-06-19T14:29:20;7.60;;;6.80;;
79130;SDS011;70394;45.194;9.142;2023-06-19T14:31:46;8.57;;;6.93;;
79130;SDS011;70394;45.194;9.142;2023-06-19T14:34:11;7.78;;;6.90;;
79130;SDS011;70394;45.194;9.142;2023-06-19T14:36:37;9.50;;;7.50;;
79130;SDS011;70394;45.194;9.142;2023-06-19T14:39:03;9.68;;;7.65;;
79130;SDS011;70394;45.194;9.142;2023-06-19T14:41:28;8.75;;;7.03;;
79130;SDS011;70394;45.194;9.142;2023-06-19T14:43:54;8.55;;;7.53;;
79130;SDS011;70394;45.194;9.142;2023-06-19T14:46:19;8.43;;;7.15;;
79130;SDS011;70394;45.194;9.142;2023-06-19T14:48:44;10.13;;;7.43;;
79130;SDS011;70394;45.194;9.142;2023-06-19T14:51:10;8.40;;;7.03;;
79130;SDS011;70394;45.194;9.142;2023-06-19T14:53:36;8.43;;;7.40;;